Terminal Aerodrome Forecast
Issued by NWS

Home | Current Version | Previous Version | Graphics & Text | Print | Product List | Glossary On
Versions: 1 2 3 4 5 6 7 8 9 10 11 12 13
000
FTUS42 KMHX 261700 RRA
TAFOAJ
TAF
KOAJ 261745Z 2618/2718 VRB04KT P6SM BKN080 OVC150
     FM262100 30004KT P6SM -RA OVC035
     FM270200 31010G16KT 6SM -RA BR SCT015 OVC025
     FM271000 33012G18KT 6SM -RASN SCT007 OVC015
     FM271500 32008KT P6SM OVC025
      AMD LTD TO CLD VIS AND WIND=

USA.gov is the U.S. government's official web portal to all federal, state and local government web resources and services.